CYHU/YHU METAR and TAF weather

Enter ICAO airport designator
Station Type Date Time Source
CYHU METAR 2020/09/22 20:00 UTC NOAA

CYHU 222000Z AUTO 33005KT 300V360 9SM CLR 18/04 A3001 RMK SLP163 DENSITY ALT 300FT


Station Type Date Time Source
CYHU Decoded METAR 2020/09/22 20:00 UTC NOAA

Saint Hubert Airport , Canada (CYHU) 45-31N 073-25W
Sep 22, 2020 - 04:00 PM EDT / 2020.09.22 2000 UTC
Wind: from the NNW (330 degrees) at 6 MPH (5 KT) (direction variable):0
Visibility: 9 mile(s):0
Sky conditions: clear
Temperature: 64 F (18 C)
Dew Point: 39 F (4 C)
Relative Humidity: 39%
Pressure (altimeter): 30.01 in. Hg (1016 hPa)
ob: CYHU 222000Z AUTO 33005KT 300V360 9SM CLR 18/04 A3001 RMK SLP163 DENSITY ALT 300FT
cycle: 20

Station Type Date Time Source
CYHU TAF 2020/09/22 18:45 UTC NOAA

TAF TAF CYHU 221740Z 2218/2318 27005KT P6SM SKC
FM230000 26009KT P6SM SKC
FM230700 29008KT P6SM BKN050
FM231600 27015KT P6SM BKN030
RMK FCST BASED ON AUTO OBS. NXT FCST BY 230000Z

Example: see airport list